Time;durP1;ratioP1;P1;durP2;ratioP2;P2;SDS_P1;SDS_P2;PMS_P1;PMS_P2;Temp;Humidity;BMP_temperature;BMP_pressure;BME280_temperature;BME280_humidity;BME280_pressure;Samples;Min_cycle;Max_cycle;Signal;HPM_P1;HPM_P2
2022/10/13 00:01:32;;;;;;;0.85;0.70;;;;;;;11.97;78.91;100389.59;5034505;28;20395;-72
2022/10/13 00:04:01;;;;;;;5.60;2.78;;;;;;;11.96;78.94;100392.16;5017210;28;20049;-72
2022/10/13 00:06:30;;;;;;;4.93;2.38;;;;;;;11.90;78.66;100387.84;5035110;28;20239;-73
2022/10/13 00:08:59;;;;;;;0.80;0.65;;;;;;;11.90;78.80;100392.16;5034444;28;20507;-73
2022/10/13 00:11:29;;;;;;;4.78;0.95;;;;;;;11.85;78.89;100379.31;5034416;28;20052;-73
2022/10/13 00:14:00;;;;;;;1.23;1.13;;;;;;;11.76;79.01;100388.63;5033861;28;20057;-71
2022/10/13 00:16:32;;;;;;;0.90;0.90;;;;;;;11.72;79.09;100392.88;5034655;28;20487;-72
2022/10/13 00:19:01;;;;;;;17.80;2.08;;;;;;;11.66;79.24;100392.78;5034244;28;20057;-73
2022/10/13 00:21:30;;;;;;;0.60;0.60;;;;;;;11.70;79.25;100386.91;5033807;28;20056;-72
2022/10/13 00:23:59;;;;;;;1.48;1.27;;;;;;;11.71;79.21;100380.94;5034427;28;20072;-72
2022/10/13 00:26:28;;;;;;;1.80;1.70;;;;;;;11.73;79.02;100379.28;5034412;28;20398;-71
2022/10/13 00:28:58;;;;;;;5.38;1.77;;;;;;;11.70;79.28;100374.13;5034453;28;20045;-71
2022/10/13 00:31:30;;;;;;;1.88;1.75;;;;;;;11.78;79.15;100382.69;5034087;28;20046;-72
2022/10/13 00:34:01;;;;;;;1.00;0.90;;;;;;;11.79;79.20;100369.06;5034377;28;20041;-74
2022/10/13 00:36:31;;;;;;;1.05;0.95;;;;;;;11.79;79.13;100368.19;5034265;28;20063;-71
2022/10/13 00:39:00;;;;;;;0.47;0.47;;;;;;;11.73;79.12;100361.38;5034122;28;20486;-71
2022/10/13 00:41:28;;;;;;;1.80;1.38;;;;;;;11.84;79.02;100377.59;5033979;28;20446;-72
2022/10/13 00:44:00;;;;;;;3.97;1.05;;;;;;;11.83;79.23;100369.94;5033007;28;20480;-72
2022/10/13 00:46:31;;;;;;;2.53;1.83;;;;;;;11.67;79.37;100345.94;5034069;28;20399;-71
2022/10/13 00:49:06;;;;;;;0.70;0.70;;;;;;;11.82;79.10;100374.19;5034415;28;20095;-73
2022/10/13 00:51:39;;;;;;;0.85;0.70;;;;;;;11.79;79.43;100368.19;5033912;28;20047;-72
2022/10/13 00:54:11;;;;;;;0.65;0.65;;;;;;;11.79;79.62;100363.94;5034092;28;20096;-72
2022/10/13 00:56:41;;;;;;;1.48;1.00;;;;;;;11.82;79.29;100363.97;5033673;28;20065;-72
2022/10/13 00:59:17;;;;;;;0.43;0.43;;;;;;;11.77;79.29;100368.19;5033610;28;20049;-72
2022/10/13 01:01:46;;;;;;;0.93;0.82;;;;;;;11.65;79.43;100357.88;5033998;28;20049;-71
2022/10/13 01:04:17;;;;;;;1.52;1.40;;;;;;;11.67;79.71;100368.09;5033897;28;20041;-72
2022/10/13 01:06:48;;;;;;;1.23;0.88;;;;;;;11.65;79.74;100360.44;5033640;28;20046;-72
2022/10/13 01:09:16;;;;;;;0.50;0.50;;;;;;;11.65;79.76;100362.97;5034385;28;20476;-73
2022/10/13 01:12:02;;;;;;;1.83;1.58;;;;;;;11.65;79.58;100360.44;5016566;28;20049;-71
2022/10/13 01:14:38;;;;;;;1.65;1.23;;;;;;;11.62;79.61;100350.16;5033600;28;20553;-72
2022/10/13 01:17:19;;;;;;;3.70;1.52;;;;;;;11.64;79.59;100363.81;5033774;28;20132;-72
2022/10/13 01:20:28;;;;;;;3.08;1.98;;;;;;;11.64;79.75;100353.59;5033701;28;20037;-73
2022/10/13 01:23:18;;;;;;;1.65;1.40;;;;;;;11.64;79.58;100353.59;5033509;28;20077;-73
2022/10/13 01:26:09;;;;;;;0.40;0.40;;;;;;;11.67;79.69;100357.84;5033967;28;20064;-72
2022/10/13 01:29:08;;;;;;;1.45;1.15;;;;;;;11.68;79.69;100351.94;5033436;28;20377;-73
2022/10/13 01:31:43;;;;;;;1.33;0.70;;;;;;;11.71;79.57;100352.81;5033470;28;20049;-71
2022/10/13 01:34:20;;;;;;;1.17;1.08;;;;;;;11.74;79.46;100350.28;5037490;28;20069;-72
2022/10/13 01:37:00;;;;;;;0.65;0.65;;;;;;;11.69;79.53;100336.59;5038268;28;20111;-71
2022/10/13 01:39:37;;;;;;;2.55;2.03;;;;;;;11.78;79.36;100357.09;5036036;28;20450;-72
2022/10/13 01:42:14;;;;;;;0.77;0.70;;;;;;;11.82;79.37;100358.84;5037571;28;20056;-72
2022/10/13 01:44:49;;;;;;;2.47;2.28;;;;;;;11.84;79.38;100357.16;5037207;28;20060;-72
2022/10/13 01:47:23;;;;;;;2.08;1.20;;;;;;;11.82;79.37;100348.63;5037069;28;20049;-72
2022/10/13 01:49:55;;;;;;;2.78;1.23;;;;;;;11.88;79.19;100353.75;5037717;28;20546;-73
2022/10/13 01:52:27;;;;;;;1.55;1.45;;;;;;;11.86;79.10;100346.91;5037443;28;20123;-73
2022/10/13 01:54:56;;;;;;;2.28;1.85;;;;;;;11.79;78.87;100340.94;5037006;28;20061;-72
2022/10/13 01:57:33;;;;;;;1.38;1.05;;;;;;;11.79;79.02;100342.63;5036963;28;20045;-73
2022/10/13 02:00:06;;;;;;;7.15;1.33;;;;;;;11.80;79.13;100334.97;5036291;28;20065;-70
2022/10/13 02:02:54;;;;;;;3.17;1.58;;;;;;;11.79;79.02;100343.47;5036844;28;20144;-72
2022/10/13 02:05:33;;;;;;;1.15;0.75;;;;;;;11.79;79.05;100333.25;5036859;28;20058;-71
2022/10/13 02:08:06;;;;;;;1.10;1.00;;;;;;;11.78;79.05;100341.75;5036742;28;20068;-71
2022/10/13 02:10:41;;;;;;;1.23;1.15;;;;;;;11.76;78.97;100333.22;5036835;28;20056;-72
2022/10/13 02:13:14;;;;;;;0.85;0.80;;;;;;;11.74;79.18;100331.50;5036711;28;20050;-74
2022/10/13 02:15:47;;;;;;;1.50;0.95;;;;;;;11.73;79.25;100328.13;5036964;28;20065;-73
2022/10/13 02:18:22;;;;;;;0.57;0.57;;;;;;;11.72;79.31;100326.41;5036596;28;20068;-72
2022/10/13 02:20:51;;;;;;;1.42;1.33;;;;;;;11.74;79.38;100319.59;5036967;28;20056;-73
2022/10/13 02:23:21;;;;;;;3.92;2.15;;;;;;;11.71;79.51;100319.56;5035656;28;20407;-72
2022/10/13 02:25:51;;;;;;;6.05;1.05;;;;;;;11.75;79.70;100320.44;5036803;28;20069;-73
2022/10/13 02:28:20;;;;;;;0.82;0.82;;;;;;;11.72;79.89;100320.41;5036606;28;20042;-71
2022/10/13 02:30:48;;;;;;;1.90;0.90;;;;;;;11.73;80.08;100333.25;5036313;28;20037;-73
2022/10/13 02:33:19;;;;;;;0.70;0.70;;;;;;;11.75;80.12;100323.88;5036601;28;20056;-71
2022/10/13 02:35:47;;;;;;;0.68;0.68;;;;;;;11.72;79.97;100326.41;5036366;28;20053;-72
2022/10/13 02:38:17;;;;;;;1.25;1.15;;;;;;;11.72;79.99;100326.41;5036442;28;20551;-73
2022/10/13 02:40:45;;;;;;;2.08;1.75;;;;;;;11.67;80.02;100322.94;5036327;28;20466;-72
2022/10/13 02:43:14;;;;;;;2.10;1.77;;;;;;;11.67;80.14;100312.69;5036346;28;20033;-73
2022/10/13 02:45:43;;;;;;;1.05;0.95;;;;;;;11.72;80.02;100315.31;5036249;28;20287;-72
2022/10/13 02:48:11;;;;;;;2.72;2.53;;;;;;;11.70;80.14;100307.63;5036022;28;20068;-73
2022/10/13 02:50:41;;;;;;;0.98;0.93;;;;;;;11.74;80.15;100311.91;5035949;28;20056;-72
2022/10/13 02:53:10;;;;;;;0.70;0.70;;;;;;;11.76;80.43;100307.66;5036036;28;20057;-73
2022/10/13 02:55:39;;;;;;;1.50;1.15;;;;;;;11.72;80.12;100305.94;5035861;28;20034;-73
2022/10/13 02:58:08;;;;;;;0.40;0.40;;;;;;;11.71;80.28;100311.88;5035831;28;20038;-74
2022/10/13 03:00:38;;;;;;;1.07;1.00;;;;;;;11.71;80.31;100305.94;5035377;28;20052;-71
2022/10/13 03:03:07;;;;;;;2.97;1.85;;;;;;;11.73;80.36;100310.22;5035809;28;20129;-72
2022/10/13 03:05:35;;;;;;;2.22;1.42;;;;;;;11.71;80.30;100311.88;5036010;28;20434;-73
2022/10/13 03:08:06;;;;;;;1.50;1.27;;;;;;;11.69;80.68;100315.28;5035661;28;20068;-72
2022/10/13 03:10:35;;;;;;;0.65;0.65;;;;;;;11.68;80.30;100311.03;5035996;28;20055;-73
2022/10/13 03:13:04;;;;;;;1.75;0.95;;;;;;;11.65;80.29;100308.41;5035872;28;20041;-72
2022/10/13 03:15:33;;;;;;;1.05;0.95;;;;;;;11.68;80.39;100313.59;5036101;28;20076;-71
2022/10/13 03:18:04;;;;;;;0.60;0.52;;;;;;;11.72;80.21;100316.16;5035845;28;20053;-71
2022/10/13 03:20:34;;;;;;;3.10;1.67;;;;;;;11.74;80.04;100311.91;5035659;28;20058;-73
2022/10/13 03:23:02;;;;;;;5.88;2.00;;;;;;;11.75;80.24;100313.63;5035387;28;20099;-72
2022/10/13 03:25:33;;;;;;;0.67;0.67;;;;;;;11.75;79.96;100305.97;5035324;28;20067;-73
2022/10/13 03:28:02;;;;;;;0.77;0.70;;;;;;;11.75;79.97;100300.84;5035365;28;20069;-71
2022/10/13 03:30:31;;;;;;;1.05;1.00;;;;;;;11.76;80.03;100312.78;5035784;28;20059;-72
2022/10/13 03:32:59;;;;;;;13.50;2.22;;;;;;;11.80;79.87;100304.28;5035124;28;20038;-72
2022/10/13 03:35:28;;;;;;;1.73;1.45;;;;;;;11.80;79.97;100293.19;5035086;28;20037;-72
2022/10/13 03:37:57;;;;;;;0.60;0.60;;;;;;;11.79;79.99;100302.56;5034973;28;20438;-72
2022/10/13 03:40:28;;;;;;;0.60;0.60;;;;;;;11.78;79.90;100298.28;5034911;28;20050;-72
2022/10/13 03:42:58;;;;;;;0.93;0.77;;;;;;;11.79;79.96;100307.69;5035053;28;20065;-71
2022/10/13 03:45:27;;;;;;;1.38;1.27;;;;;;;11.80;79.69;100306.84;5036059;28;20468;-73
2022/10/13 03:47:56;;;;;;;1.88;1.67;;;;;;;11.78;79.71;100311.06;5017296;28;20038;-71
2022/10/13 03:50:25;;;;;;;1.70;1.60;;;;;;;11.80;79.79;100304.28;5034849;28;20041;-72
2022/10/13 03:52:54;;;;;;;;;;;;;;;11.81;79.78;100305.97;5035456;28;20060;-73
2022/10/13 03:55:23;;;;;;;2.03;1.15;;;;;;;11.80;79.58;100304.28;5034993;28;19921;-71
2022/10/13 03:57:52;;;;;;;3.00;2.20;;;;;;;11.78;79.77;100305.94;5034717;28;20048;-71
2022/10/13 04:00:22;;;;;;;2.42;1.55;;;;;;;11.78;79.41;100311.06;5034356;28;20353;-72
2022/10/13 04:02:51;;;;;;;2.42;2.05;;;;;;;11.77;79.53;100308.50;5034785;28;20476;-71
2022/10/13 04:05:20;;;;;;;1.88;1.70;;;;;;;11.79;79.57;100302.56;5034499;28;20042;-72
2022/10/13 04:07:48;;;;;;;1.77;1.48;;;;;;;11.85;79.61;100312.81;5034733;28;20038;-73
2022/10/13 04:10:18;;;;;;;2.70;1.25;;;;;;;11.88;79.57;100306.84;5034801;28;20049;-71
2022/10/13 04:12:50;;;;;;;1.67;1.55;;;;;;;11.90;79.55;100306.00;5034623;28;20049;-71
2022/10/13 04:15:18;;;;;;;1.83;1.13;;;;;;;11.88;79.52;100307.72;5034962;28;20040;-72
2022/10/13 04:17:48;;;;;;;1.48;1.38;;;;;;;11.82;79.48;100289.78;5034289;28;20045;-70
2022/10/13 04:20:17;;;;;;;5.88;2.15;;;;;;;11.80;79.36;100288.94;5034286;28;20495;-71
2022/10/13 04:22:46;;;;;;;0.77;0.77;;;;;;;11.95;79.47;100298.34;5034207;28;20033;-72
2022/10/13 04:25:14;;;;;;;2.00;1.15;;;;;;;11.96;79.13;100306.03;5034454;28;20037;-73
2022/10/13 04:27:43;;;;;;;3.30;0.90;;;;;;;11.93;79.29;100295.78;5034432;28;20407;-72
2022/10/13 04:30:12;;;;;;;1.20;1.08;;;;;;;11.94;79.28;100300.06;5034697;28;20041;-72
2022/10/13 04:32:41;;;;;;;2.40;1.08;;;;;;;11.97;79.11;100306.91;5034332;28;20033;-72
2022/10/13 04:35:13;;;;;;;0.93;0.85;;;;;;;11.99;79.27;100300.94;5033395;28;20057;-73
2022/10/13 04:37:42;;;;;;;1.33;1.15;;;;;;;11.99;79.17;100295.81;5034063;28;20045;-71
2022/10/13 04:40:14;;;;;;;2.10;1.80;;;;;;;11.99;79.18;100300.09;5034583;28;20053;-73
2022/10/13 04:42:42;;;;;;;2.80;2.33;;;;;;;12.02;79.17;100295.81;5034015;28;20037;-72
2022/10/13 04:45:11;;;;;;;1.50;1.20;;;;;;;12.00;79.16;100294.97;5032746;28;20037;-73
2022/10/13 04:47:42;;;;;;;1.48;1.25;;;;;;;11.73;79.04;100250.53;5034260;28;20495;-73
2022/10/13 04:50:10;;;;;;;0.45;0.45;;;;;;;12.00;78.83;100294.97;5034139;28;20045;-72
2022/10/13 04:52:40;;;;;;;1.45;1.02;;;;;;;12.02;78.73;100293.25;5034028;28;20050;-71
2022/10/13 04:55:09;;;;;;;3.75;1.85;;;;;;;12.02;78.61;100306.06;5033764;28;20049;-71
2022/10/13 04:57:38;;;;;;;2.45;2.22;;;;;;;11.98;78.57;100291.56;5033679;28;20042;-71
2022/10/13 05:00:08;;;;;;;2.70;2.50;;;;;;;12.00;78.57;100297.53;5033363;28;20062;-72
2022/10/13 05:02:38;;;;;;;0.68;0.68;;;;;;;12.00;78.57;100297.53;5033564;28;20038;-73
2022/10/13 05:05:08;;;;;;;0.80;0.80;;;;;;;12.02;78.91;100302.66;5033791;28;20399;-71
2022/10/13 05:07:36;;;;;;;1.17;1.08;;;;;;;12.02;78.94;100295.00;5033375;28;20053;-71
2022/10/13 05:10:07;;;;;;;1.27;1.17;;;;;;;12.06;79.13;100299.25;5033537;28;20051;-72
2022/10/13 05:12:36;;;;;;;1.90;1.58;;;;;;;12.07;79.23;100301.81;5033777;28;20050;-71
2022/10/13 05:15:06;;;;;;;1.43;1.00;;;;;;;12.07;79.15;100303.50;5033784;28;20411;-73
2022/10/13 05:17:35;;;;;;;0.70;0.70;;;;;;;12.10;79.25;100306.94;5033527;28;20057;-73
2022/10/13 05:20:10;;;;;;;1.38;0.88;;;;;;;12.14;79.32;100296.72;5033495;28;20403;-71
2022/10/13 05:22:39;;;;;;;1.15;1.05;;;;;;;12.12;79.33;100295.88;5032646;28;20453;-71
2022/10/13 05:25:09;;;;;;;1.67;1.38;;;;;;;12.05;79.37;100300.94;5032504;28;20060;-72
2022/10/13 05:27:38;;;;;;;1.83;1.33;;;;;;;12.05;79.22;100306.06;5033960;28;20056;-71
2022/10/13 05:30:11;;;;;;;1.02;0.88;;;;;;;12.01;79.71;100303.50;5033447;28;20133;-72
2022/10/13 05:32:39;;;;;;;3.20;1.55;;;;;;;12.06;79.85;100307.78;5033617;28;20391;-72
2022/10/13 05:35:09;;;;;;;0.60;0.60;;;;;;;12.07;79.81;100294.13;5033784;28;20038;-72
2022/10/13 05:37:40;;;;;;;3.60;1.30;;;;;;;12.15;80.10;100306.09;5033678;28;20411;-72
2022/10/13 05:40:11;;;;;;;1.05;0.73;;;;;;;12.20;79.64;100306.97;5033621;28;20048;-72
2022/10/13 05:42:40;;;;;;;0.80;0.80;;;;;;;12.18;79.61;100295.88;5032541;28;20033;-72
2022/10/13 05:45:11;;;;;;;1.63;1.30;;;;;;;12.23;79.44;100312.09;5033228;28;20050;-71
2022/10/13 05:47:40;;;;;;;2.00;0.85;;;;;;;12.25;79.27;100311.25;5033183;28;20096;-72
2022/10/13 05:50:10;;;;;;;1.42;1.33;;;;;;;12.25;79.21;100306.13;5016443;28;20053;-71
2022/10/13 05:52:41;;;;;;;0.70;0.70;;;;;;;12.22;79.04;100302.69;5033658;28;20045;-72
2022/10/13 05:55:15;;;;;;;2.50;2.25;;;;;;;12.30;78.98;100308.69;5033366;28;20075;-72
2022/10/13 05:57:48;;;;;;;3.55;1.27;;;;;;;12.31;78.87;100307.88;5033283;28;20048;-72
2022/10/13 06:00:19;;;;;;;1.55;1.20;;;;;;;12.29;78.79;100299.31;5032814;28;20053;-73
2022/10/13 06:02:51;;;;;;;1.10;1.00;;;;;;;12.33;78.71;100313.84;5033280;28;20537;-72
2022/10/13 06:05:26;;;;;;;9.95;3.53;;;;;;;12.33;78.44;100311.28;5033264;28;20069;-71
2022/10/13 06:07:57;;;;;;;4.65;2.05;;;;;;;12.32;78.51;100314.66;5033216;28;20057;-73
2022/10/13 06:10:27;;;;;;;1.85;1.15;;;;;;;12.28;78.19;100307.84;5032830;28;20037;-72
2022/10/13 06:12:56;;;;;;;0.65;0.47;;;;;;;12.31;78.24;100315.53;5032922;28;20049;-72
2022/10/13 06:15:24;;;;;;;1.08;0.93;;;;;;;12.29;77.89;100304.41;5031662;28;20037;-73
2022/10/13 06:17:57;;;;;;;0.55;0.55;;;;;;;12.33;77.89;100308.72;5033202;28;20057;-73
2022/10/13 06:20:26;;;;;;;0.85;0.85;;;;;;;12.34;77.80;100312.97;5035947;28;20495;-72
2022/10/13 06:22:55;;;;;;;0.75;0.75;;;;;;;12.39;77.71;100318.94;5036673;28;20062;-73
2022/10/13 06:25:23;;;;;;;0.63;0.63;;;;;;;12.29;77.59;100299.31;5036603;28;20052;-73
2022/10/13 06:27:54;;;;;;;4.60;1.13;;;;;;;12.45;77.54;100316.41;5036476;28;20038;-73
2022/10/13 06:30:22;;;;;;;1.48;0.90;;;;;;;12.47;77.55;100314.72;5036642;28;20040;-72
2022/10/13 06:32:53;;;;;;;4.03;1.43;;;;;;;12.57;77.36;100321.56;5035378;28;20103;-73
2022/10/13 06:35:22;;;;;;;1.00;0.68;;;;;;;12.61;77.54;100320.72;5036317;28;20325;-73
2022/10/13 06:37:52;;;;;;;2.40;1.38;;;;;;;12.69;77.34;100316.47;5036259;28;20124;-73
2022/10/13 06:40:20;;;;;;;1.05;0.70;;;;;;;12.69;77.24;100319.03;5036196;28;20587;-72
2022/10/13 06:42:50;;;;;;;1.80;1.65;;;;;;;12.70;77.09;100316.44;5034985;28;20041;-73
2022/10/13 06:45:24;;;;;;;1.52;1.08;;;;;;;12.72;76.94;100324.97;5051112;28;20049;-73
2022/10/13 06:47:53;;;;;;;1.25;1.15;;;;;;;12.73;76.60;100321.59;5056065;28;20049;-72
2022/10/13 06:50:22;;;;;;;0.93;0.90;;;;;;;12.76;76.70;100323.28;5056043;28;20124;-72
2022/10/13 06:52:51;;;;;;;1.45;0.73;;;;;;;12.80;76.57;100325.00;5056234;28;20048;-71
2022/10/13 06:55:20;;;;;;;4.82;2.42;;;;;;;12.77;76.56;100315.59;5056088;28;20524;-73
2022/10/13 06:57:49;;;;;;;1.50;1.30;;;;;;;12.92;76.46;100327.56;5055744;28;20117;-71
2022/10/13 07:00:18;;;;;;;1.23;0.98;;;;;;;12.96;76.64;100329.25;5055856;28;20155;-71
2022/10/13 07:02:51;;;;;;;;;;;;;;;12.98;76.30;100319.84;5050534;28;20080;-73
2022/10/13 07:05:20;;;;;;;0.93;0.93;;;;;;;13.02;76.59;100319.03;5047086;28;20366;-71
2022/10/13 07:07:52;;;;;;;1.65;1.55;;;;;;;13.03;76.30;100318.16;5051131;28;20053;-74
2022/10/13 07:10:21;;;;;;;2.15;1.48;;;;;;;13.15;76.35;100325.88;5056006;28;20056;-70
2022/10/13 07:12:50;;;;;;;1.30;1.20;;;;;;;13.21;76.11;100323.31;5055767;28;20466;-72
2022/10/13 07:15:19;;;;;;;1.65;1.50;;;;;;;13.35;75.98;100324.16;5055696;28;20098;-73
2022/10/13 07:17:52;;;;;;;0.65;0.65;;;;;;;13.41;75.80;100321.56;5055462;28;20445;-73
2022/10/13 07:20:21;;;;;;;2.95;0.80;;;;;;;13.39;75.44;100313.00;5055670;28;20048;-72
2022/10/13 07:22:53;;;;;;;1.25;1.10;;;;;;;13.37;74.65;100308.75;5055275;28;20124;-71
2022/10/13 07:25:22;;;;;;;1.80;1.15;;;;;;;13.25;75.11;100281.44;5055578;28;20083;-72
2022/10/13 07:27:51;;;;;;;0.40;0.40;;;;;;;13.52;74.67;100311.28;5039288;28;20041;-73
2022/10/13 07:30:19;;;;;;;0.80;0.80;;;;;;;13.53;74.72;100305.31;5052200;28;20047;-70
2022/10/13 07:32:48;;;;;;;1.10;0.93;;;;;;;13.28;74.22;100260.91;5035290;28;20048;-71
2022/10/13 07:35:20;;;;;;;1.05;1.02;;;;;;;13.56;74.66;100307.84;5035446;28;20483;-72
2022/10/13 07:37:52;;;;;;;1.08;0.95;;;;;;;13.61;74.26;100302.69;5035447;28;20487;-71
2022/10/13 07:40:21;;;;;;;2.38;1.05;;;;;;;13.63;74.16;100301.00;5034026;28;20048;-72
2022/10/13 07:42:49;;;;;;;0.93;0.82;;;;;;;13.69;73.95;100316.38;5038366;28;20033;-71
2022/10/13 07:45:18;;;;;;;5.25;1.40;;;;;;;13.72;73.55;100317.22;5034823;28;20042;-74
2022/10/13 07:47:47;;;;;;;1.98;1.30;;;;;;;13.76;73.60;100312.91;5033758;28;20068;-72
2022/10/13 07:50:16;;;;;;;2.50;1.30;;;;;;;13.71;73.47;100289.00;5035102;28;20399;-70
2022/10/13 07:52:46;;;;;;;0.57;0.57;;;;;;;13.86;73.19;100306.91;5033901;28;20099;-74
2022/10/13 07:55:15;;;;;;;1.83;1.38;;;;;;;13.92;73.40;100306.84;5034785;28;20045;-73
2022/10/13 07:57:44;;;;;;;1.00;0.75;;;;;;;13.98;73.77;100309.41;5035543;28;20033;-72
2022/10/13 08:00:13;;;;;;;1.25;0.65;;;;;;;14.04;73.63;100305.09;5034891;28;20037;-73
2022/10/13 08:02:42;;;;;;;1.23;1.00;;;;;;;14.08;73.38;100313.66;5034632;28;20073;-71
2022/10/13 08:05:11;;;;;;;1.60;1.33;;;;;;;14.07;72.93;100314.50;5045808;28;20075;-72
2022/10/13 08:07:40;;;;;;;1.45;1.25;;;;;;;14.07;72.98;100309.38;5034391;28;20037;-72
2022/10/13 08:10:11;;;;;;;5.25;1.80;;;;;;;14.08;72.95;100305.94;5034434;28;20036;-72
2022/10/13 08:12:40;;;;;;;1.35;1.25;;;;;;;14.11;73.21;100313.63;5034792;28;20046;-71
2022/10/13 08:15:10;;;;;;;0.90;0.85;;;;;;;14.13;73.46;100308.50;5035110;28;20041;-72
2022/10/13 08:17:38;;;;;;;1.05;0.95;;;;;;;14.11;73.17;100305.91;5034396;28;20045;-73
2022/10/13 08:20:08;;;;;;;1.95;1.25;;;;;;;14.07;73.37;100288.84;5040407;28;20051;-72
2022/10/13 08:22:36;;;;;;;0.85;0.75;;;;;;;14.13;73.16;100299.09;5034146;28;20060;-72
2022/10/13 08:25:06;;;;;;;0.88;0.80;;;;;;;14.18;73.38;100297.31;5034606;28;20403;-70
2022/10/13 08:27:38;;;;;;;3.17;1.90;;;;;;;14.23;73.41;100299.88;5034231;28;20063;-73
2022/10/13 08:30:19;;;;;;;1.95;1.30;;;;;;;14.23;72.94;100295.56;5034722;28;20509;-72
2022/10/13 08:32:48;;;;;;;3.53;1.50;;;;;;;14.32;73.49;100295.59;5033978;28;20046;-73
2022/10/13 08:35:17;;;;;;;1.08;0.95;;;;;;;14.41;73.27;100295.53;5034092;28;20511;-72
2022/10/13 08:37:45;;;;;;;1.02;0.98;;;;;;;14.47;73.07;100290.31;5037932;28;20072;-71
2022/10/13 08:40:19;;;;;;;1.75;1.27;;;;;;;14.54;73.14;100289.41;5033968;28;20046;-72
2022/10/13 08:42:50;;;;;;;3.00;1.98;;;;;;;14.58;72.60;100288.56;5033564;28;20106;-72
2022/10/13 08:45:28;;;;;;;5.47;2.65;;;;;;;14.64;73.20;100292.78;5050371;28;20060;-73
2022/10/13 08:48:15;;;;;;;1.70;1.52;;;;;;;14.70;72.90;100288.47;5034457;28;20081;-72
2022/10/13 08:50:48;;;;;;;4.78;2.95;;;;;;;14.81;73.02;100282.38;5032897;28;20049;-72
2022/10/13 08:53:25;;;;;;;2.03;1.77;;;;;;;14.85;72.11;100291.78;5042848;28;20054;-72
2022/10/13 08:55:58;;;;;;;3.15;1.60;;;;;;;14.88;72.51;100295.16;5034113;28;20054;-73
2022/10/13 08:58:31;;;;;;;4.57;1.67;;;;;;;15.00;72.42;100294.19;5033452;28;20095;-73
2022/10/13 09:01:12;;;;;;;1.52;1.40;;;;;;;15.09;71.88;100281.28;5033490;28;20055;-73
2022/10/13 09:03:50;;;;;;;1.63;1.30;;;;;;;15.21;71.84;100286.31;5034306;28;20060;-73
2022/10/13 09:06:27;;;;;;;1.42;1.30;;;;;;;15.32;71.63;100282.75;5044676;28;20080;-72
2022/10/13 09:08:58;;;;;;;1.98;1.80;;;;;;;15.37;71.46;100280.13;5037482;28;20083;-72
2022/10/13 09:11:31;;;;;;;2.30;1.80;;;;;;;15.46;71.63;100285.22;5041860;28;20048;-71
2022/10/13 09:14:03;;;;;;;3.88;2.63;;;;;;;15.55;71.60;100272.22;5036080;28;20045;-73
2022/10/13 09:16:36;;;;;;;2.92;1.52;;;;;;;15.70;71.43;100277.22;5033452;28;20057;-72
2022/10/13 09:19:19;;;;;;;2.67;2.05;;;;;;;15.83;71.22;100272.78;5033502;28;20069;-71
2022/10/13 09:21:49;;;;;;;7.10;1.60;;;;;;;15.83;70.71;100253.03;5042679;28;20045;-71
2022/10/13 09:24:20;;;;;;;6.80;1.73;;;;;;;16.06;70.16;100275.88;5041110;28;20056;-71
2022/10/13 09:26:51;;;;;;;5.38;3.40;;;;;;;16.18;70.13;100277.44;5036761;28;20124;-72
2022/10/13 09:29:26;;;;;;;2.88;1.92;;;;;;;16.31;69.21;100266.09;5033356;28;20049;-71
2022/10/13 09:32:13;;;;;;;4.88;2.30;;;;;;;16.50;68.87;100268.38;5033718;28;20056;-72
2022/10/13 09:34:45;;;;;;;4.25;2.83;;;;;;;16.65;68.37;100272.50;5033604;28;20053;-73
2022/10/13 09:37:19;;;;;;;4.47;2.22;;;;;;;16.64;68.17;100265.63;5033361;28;20534;-71
2022/10/13 09:40:02;;;;;;;1.55;1.08;;;;;;;16.75;67.85;100264.56;5033317;28;20503;-73
2022/10/13 09:42:31;;;;;;;1.60;1.25;;;;;;;16.80;68.05;100264.47;5033261;28;20522;-70
2022/10/13 09:45:15;;;;;;;3.30;2.50;;;;;;;17.02;67.46;100258.09;5033232;28;20041;-70
2022/10/13 09:47:52;;;;;;;2.63;1.95;;;;;;;17.12;67.17;100232.97;5032303;28;20491;-70
2022/10/13 09:50:24;;;;;;;2.03;1.83;;;;;;;17.46;66.62;100248.69;5037126;28;20061;-72
2022/10/13 09:53:15;;;;;;;3.58;3.25;;;;;;;17.48;66.25;100239.16;5040599;28;20395;-72
2022/10/13 09:55:47;;;;;;;3.70;2.00;;;;;;;17.38;65.87;100247.09;5041663;28;20042;-72
2022/10/13 09:58:28;;;;;;;1.42;1.15;;;;;;;17.31;66.13;100242.94;5038299;28;20037;-71
2022/10/13 10:00:59;;;;;;;2.22;1.83;;;;;;;17.40;65.72;100244.47;5036723;28;20049;-71
2022/10/13 10:03:33;;;;;;;0.80;0.80;;;;;;;17.69;65.53;100241.34;5036886;28;20051;-70
2022/10/13 10:06:05;;;;;;;1.95;1.75;;;;;;;17.90;65.33;100240.91;5037069;28;20092;-73
2022/10/13 10:08:45;;;;;;;2.60;1.45;;;;;;;18.05;64.55;100243.16;5036777;28;20052;-74
2022/10/13 10:11:38;;;;;;;0.95;0.80;;;;;;;18.04;64.19;100249.22;5038492;28;20046;-72
2022/10/13 10:14:21;;;;;;;1.88;1.75;;;;;;;18.17;64.07;100242.88;5036566;28;20061;-73
2022/10/13 10:16:58;;;;;;;4.22;1.23;;;;;;;18.24;63.88;100241.00;5036925;28;20052;-71
2022/10/13 10:19:36;;;;;;;2.80;1.60;;;;;;;18.04;63.94;100236.31;5036597;28;20057;-69
2022/10/13 10:22:12;;;;;;;3.60;1.63;;;;;;;17.87;64.16;100234.09;5036537;28;20050;-69
2022/10/13 10:24:50;;;;;;;2.47;1.45;;;;;;;17.79;64.30;100229.94;5036403;28;20045;-70
2022/10/13 10:27:28;;;;;;;3.45;1.25;;;;;;;17.69;64.49;100220.69;5036825;28;20045;-73
2022/10/13 10:30:02;;;;;;;2.00;1.37;;;;;;;17.78;64.63;100221.34;5038466;28;20495;-72
2022/10/13 10:32:43;;;;;;;4.68;1.95;;;;;;;17.76;64.81;100206.75;5048910;28;20475;-72
2022/10/13 10:35:16;;;;;;;1.15;1.10;;;;;;;17.92;64.83;100219.31;5045338;28;20391;-72
2022/10/13 10:38:01;;;;;;;1.35;1.25;;;;;;;18.00;64.65;100221.72;5037229;28;20049;-72
2022/10/13 10:40:39;;;;;;;4.38;2.42;;;;;;;18.05;64.69;100212.16;5041247;28;20069;-72
2022/10/13 10:43:26;;;;;;;1.63;1.30;;;;;;;18.18;64.51;100218.75;5035535;28;20522;-73
2022/10/13 10:45:56;;;;;;;2.63;1.20;;;;;;;18.08;64.34;100209.50;5037864;28;20107;-72
2022/10/13 10:48:35;;;;;;;1.42;1.13;;;;;;;18.22;64.06;100215.19;5040629;28;20081;-71
2022/10/13 10:51:07;;;;;;;2.10;1.77;;;;;;;18.56;63.95;100212.69;5038386;28;20042;-74
2022/10/13 10:53:42;;;;;;;1.90;1.33;;;;;;;18.65;63.49;100197.78;5036382;28;20045;-71
2022/10/13 10:56:17;;;;;;;4.85;2.53;;;;;;;18.79;63.64;100209.53;5035863;28;20045;-72
2022/10/13 10:58:54;;;;;;;1.75;1.45;;;;;;;18.79;63.50;100194.84;5036163;28;20053;-72
2022/10/13 11:01:35;;;;;;;3.33;1.77;;;;;;;18.68;63.35;100202.03;5036006;28;20050;-72
2022/10/13 11:04:34;;;;;;;1.83;1.55;;;;;;;18.44;63.50;100202.63;5036522;28;20492;-73
2022/10/13 11:07:04;;;;;;;1.92;1.60;;;;;;;18.42;63.74;100200.09;5036081;28;20054;-73
2022/10/13 11:10:01;;;;;;;1.35;1.10;;;;;;;18.46;64.17;100191.38;5040601;28;20037;-73
2022/10/13 11:13:01;;;;;;;1.13;0.98;;;;;;;18.36;64.26;100192.47;5047867;28;20049;-72
2022/10/13 11:15:31;;;;;;;;;;;;;;;18.28;64.42;100191.81;5039597;28;20499;-71
2022/10/13 11:18:00;;;;;;;1.75;1.23;;;;;;;18.25;64.46;100189.28;5055737;28;19964;-74
2022/10/13 11:20:50;;;;;;;1.70;1.55;;;;;;;18.19;64.59;100180.84;5055217;28;20037;-72
2022/10/13 11:23:31;;;;;;;;;;;;;;;18.15;64.94;100176.63;5055729;28;20052;-72
2022/10/13 11:26:31;;;;;;;2.88;2.38;;;;;;;18.14;65.07;100173.16;5055360;28;19920;-71
2022/10/13 11:29:00;;;;;;;2.10;1.63;;;;;;;18.13;65.36;100160.31;5055256;28;20049;-73
2022/10/13 11:31:31;;;;;;;3.05;2.00;;;;;;;18.18;65.21;100169.66;5055703;28;20120;-73
2022/10/13 11:34:04;;;;;;;2.22;1.83;;;;;;;18.18;65.32;100164.47;5055357;28;20486;-72
2022/10/13 11:36:52;;;;;;;1.97;1.77;;;;;;;18.08;65.10;100157.81;5055101;28;20048;-73
2022/10/13 11:39:50;;;;;;;3.33;1.67;;;;;;;18.14;65.20;100162.84;5055263;28;20102;-73
2022/10/13 11:42:44;;;;;;;2.05;1.63;;;;;;;18.16;65.10;100149.91;5053057;28;20059;-73
2022/10/13 11:45:34;;;;;;;1.80;1.48;;;;;;;18.17;64.99;100146.41;5012093;28;20518;-73
2022/10/13 11:48:28;;;;;;;6.63;1.98;;;;;;;18.25;64.94;100145.34;5034844;28;20053;-71
2022/10/13 11:51:12;;;;;;;3.55;2.45;;;;;;;18.22;64.83;100132.50;5054749;28;20041;-73
2022/10/13 11:53:53;;;;;;;3.50;1.67;;;;;;;18.23;64.80;100141.13;5055068;28;20099;-71